Time;durP1;ratioP1;P1;durP2;ratioP2;P2;SDS_P1;SDS_P2;PMS_P1;PMS_P2;Temp;Humidity;BMP_temperature;BMP_pressure;BME280_temperature;BME280_humidity;BME280_pressure;Samples;Min_cycle;Max_cycle;Signal;HPM_P1;HPM_P2
2023/05/15 00:00:52;;;;;;;72.80;46.50;;;;;;;;;;5136016;27;20039;-78
2023/05/15 00:03:18;;;;;;;67.25;44.90;;;;;;;;;;5136378;27;20046;-78
2023/05/15 00:05:44;;;;;;;85.10;46.58;;;;;;;;;;5135533;27;20051;-77
2023/05/15 00:08:10;;;;;;;141.93;48.88;;;;;;;;;;5134798;27;20047;-78
2023/05/15 00:10:36;;;;;;;68.70;46.08;;;;;;;;;;5135982;27;20031;-77
2023/05/15 00:13:02;;;;;;;76.93;47.28;;;;;;;;;;5125646;27;20055;-78
2023/05/15 00:15:28;;;;;;;80.22;48.00;;;;;;;;;;5121960;27;20051;-78
2023/05/15 00:17:54;;;;;;;191.23;48.60;;;;;;;;;;5133988;27;20065;-77
2023/05/15 00:20:21;;;;;;;82.60;47.70;;;;;;;;;;5115552;27;20047;-77
2023/05/15 00:22:47;;;;;;;87.95;48.38;;;;;;;;;;5134959;27;20511;-77
2023/05/15 00:25:13;;;;;;;80.18;48.28;;;;;;;;;;5132883;27;20035;-78
2023/05/15 00:27:39;;;;;;;70.13;46.40;;;;;;;;;;5134681;27;20092;-77
2023/05/15 00:30:05;;;;;;;77.70;48.70;;;;;;;;;;5134208;27;20071;-78
2023/05/15 00:32:31;;;;;;;81.85;45.85;;;;;;;;;;5134167;28;20538;-77
2023/05/15 00:34:57;;;;;;;60.95;45.03;;;;;;;;;;5130040;28;20405;-77
2023/05/15 00:37:23;;;;;;;126.00;46.90;;;;;;;;;;5135005;28;20049;-77
2023/05/15 00:39:50;;;;;;;89.80;47.22;;;;;;;;;;5133752;28;20046;-77
2023/05/15 00:42:16;;;;;;;71.80;43.33;;;;;;;;;;5117942;28;20069;-78
2023/05/15 00:44:44;;;;;;;73.03;45.70;;;;;;;;;;5131301;28;20051;-77
2023/05/15 00:47:10;;;;;;;86.45;44.72;;;;;;;;;;5133993;28;20050;-77
2023/05/15 00:49:37;;;;;;;86.35;44.42;;;;;;;;;;5133782;28;20119;-78
2023/05/15 00:52:07;;;;;;;66.28;44.90;;;;;;;;;;5134041;28;20492;-77
2023/05/15 00:54:33;;;;;;;90.53;44.53;;;;;;;;;;5132222;28;20070;-78
2023/05/15 00:56:59;;;;;;;97.22;43.75;;;;;;;;;;5114677;28;20081;-78
2023/05/15 00:59:29;;;;;;;91.35;45.33;;;;;;;;;;5133295;28;20102;-78
2023/05/15 01:01:55;;;;;;;69.15;42.67;;;;;;;;;;5135114;27;20044;-78
2023/05/15 01:04:21;;;;;;;65.85;44.05;;;;;;;;;;5137172;27;20501;-76
2023/05/15 01:06:47;;;;;;;82.10;45.83;;;;;;;;;;5137635;27;20043;-77
2023/05/15 01:09:14;;;;;;;71.55;44.50;;;;;;;;;;5137894;27;20389;-77
2023/05/15 01:11:41;;;;;;;84.22;46.08;;;;;;;;;;5117630;27;20055;-77
2023/05/15 01:14:08;;;;;;;91.82;46.80;;;;;;;;;;5134406;27;20061;-77
2023/05/15 01:16:35;;;;;;;98.47;46.22;;;;;;;;;;5134452;27;20054;-76
2023/05/15 01:19:01;;;;;;;94.53;46.15;;;;;;;;;;5137555;27;20118;-79
2023/05/15 01:21:27;;;;;;;70.80;43.58;;;;;;;;;;5138300;27;20042;-78
2023/05/15 01:24:12;;;;;;;65.38;40.28;;;;;;;;;;5136804;27;20054;-78
2023/05/15 01:26:57;;;;;;;122.45;44.22;;;;;;;;;;5118258;27;20043;-79
2023/05/15 01:29:29;;;;;;;77.13;44.50;;;;;;;;;;5121861;27;20053;-78
2023/05/15 01:32:01;;;;;;;83.97;43.58;;;;;;;;;;5134334;27;20090;-76
2023/05/15 01:34:31;;;;;;;82.45;45.40;;;;;;;;;;5127435;27;20488;-77
2023/05/15 01:36:59;;;;;;;92.03;43.65;;;;;;;;;;5113925;27;20106;-77
2023/05/15 01:39:27;;;;;;;92.57;43.10;;;;;;;;;;5146778;27;20054;-77
2023/05/15 01:41:59;;;;;;;64.85;43.20;;;;;;;;;;5144004;27;20061;-78
2023/05/15 01:44:28;;;;;;;85.68;45.15;;;;;;;;;;5131124;27;20508;-77
2023/05/15 01:46:57;;;;;;;97.60;44.58;;;;;;;;;;5110389;28;20075;-77
2023/05/15 01:49:24;;;;;;;69.85;45.63;;;;;;;;;;5133141;27;20069;-76
2023/05/15 01:51:52;;;;;;;76.90;46.22;;;;;;;;;;5137690;27;20043;-77
2023/05/15 01:54:19;;;;;;;74.07;45.72;;;;;;;;;;5116656;27;20039;-78
2023/05/15 01:56:45;;;;;;;67.63;45.38;;;;;;;;;;5138310;27;20039;-78
2023/05/15 01:59:13;;;;;;;77.43;48.33;;;;;;;;;;5136015;27;20486;-77
2023/05/15 02:01:39;;;;;;;72.40;46.30;;;;;;;;;;5138199;27;20057;-77
2023/05/15 02:04:06;;;;;;;65.10;45.60;;;;;;;;;;5102025;27;20043;-77
2023/05/15 02:06:32;;;;;;;68.65;46.92;;;;;;;;;;5128623;27;20514;-78
2023/05/15 02:09:01;;;;;;;80.00;48.75;;;;;;;;;;5131302;27;20047;-77
2023/05/15 02:11:27;;;;;;;109.60;49.03;;;;;;;;;;5137884;27;20055;-78
2023/05/15 02:13:54;;;;;;;70.00;47.20;;;;;;;;;;5135061;27;20039;-78
2023/05/15 02:16:20;;;;;;;80.70;46.65;;;;;;;;;;5138294;27;20047;-78
2023/05/15 02:18:46;;;;;;;75.75;45.88;;;;;;;;;;5139533;27;20043;-78
2023/05/15 02:21:13;;;;;;;79.55;46.78;;;;;;;;;;5138095;27;20454;-77
2023/05/15 02:23:39;;;;;;;61.90;44.83;;;;;;;;;;5136345;27;20043;-77
2023/05/15 02:26:17;;;;;;;69.93;45.72;;;;;;;;;;5136539;27;20072;-77
2023/05/15 02:28:50;;;;;;;78.45;46.92;;;;;;;;;;5138431;27;20054;-77
2023/05/15 02:31:35;;;;;;;64.40;45.83;;;;;;;;;;5137874;27;20051;-77
2023/05/15 02:34:23;;;;;;;63.15;45.05;;;;;;;;;;5118601;27;20129;-77
2023/05/15 02:36:50;;;;;;;69.60;47.15;;;;;;;;;;5125826;27;20043;-78
2023/05/15 02:39:16;;;;;;;67.38;45.97;;;;;;;;;;5134136;27;20111;-77
2023/05/15 02:41:43;;;;;;;67.05;45.97;;;;;;;;;;5131094;27;20035;-77
2023/05/15 02:44:10;;;;;;;74.97;46.80;;;;;;;;;;5130719;27;20043;-77
2023/05/15 02:46:36;;;;;;;74.72;47.67;;;;;;;;;;5117218;27;20051;-77
2023/05/15 02:49:03;;;;;;;83.15;48.58;;;;;;;;;;5137108;27;20038;-77
2023/05/15 02:51:30;;;;;;;72.50;47.58;;;;;;;;;;5133679;27;20038;-77
2023/05/15 02:53:56;;;;;;;65.57;47.30;;;;;;;;;;5112529;27;20039;-78
2023/05/15 02:56:22;;;;;;;75.80;47.45;;;;;;;;;;5134966;27;20092;-78
2023/05/15 02:58:48;;;;;;;133.55;51.33;;;;;;;;;;5135935;27;20035;-78
2023/05/15 03:01:14;;;;;;;88.30;49.70;;;;;;;;;;5137589;27;20035;-77
2023/05/15 03:03:40;;;;;;;73.13;49.78;;;;;;;;;;5136745;27;20094;-78
2023/05/15 03:06:07;;;;;;;94.95;50.83;;;;;;;;;;5135360;27;20047;-77
2023/05/15 03:08:33;;;;;;;87.53;51.13;;;;;;;;;;5117033;27;20099;-77
2023/05/15 03:10:59;;;;;;;138.38;51.67;;;;;;;;;;5134196;27;20051;-78
2023/05/15 03:13:25;;;;;;;82.93;49.25;;;;;;;;;;5136593;27;20106;-76
2023/05/15 03:15:52;;;;;;;134.48;52.58;;;;;;;;;;5084291;27;20068;-76
2023/05/15 03:18:18;;;;;;;115.03;52.65;;;;;;;;;;5135114;27;20035;-77
2023/05/15 03:20:44;;;;;;;128.57;52.00;;;;;;;;;;5134941;27;20453;-77
2023/05/15 03:23:10;;;;;;;193.07;52.03;;;;;;;;;;5135799;27;20035;-77
2023/05/15 03:25:36;;;;;;;120.22;50.47;;;;;;;;;;5134418;27;20077;-78
2023/05/15 03:28:02;;;;;;;88.15;51.33;;;;;;;;;;5135118;27;20073;-78
2023/05/15 03:30:28;;;;;;;100.57;50.35;;;;;;;;;;5135298;27;20054;-77
2023/05/15 03:32:56;;;;;;;81.63;51.95;;;;;;;;;;5133907;27;20104;-77
2023/05/15 03:35:22;;;;;;;84.50;50.88;;;;;;;;;;5133520;27;20047;-77
2023/05/15 03:37:48;;;;;;;114.32;53.00;;;;;;;;;;5132107;27;20050;-77
2023/05/15 03:40:14;;;;;;;76.35;50.75;;;;;;;;;;5116021;27;20043;-77
2023/05/15 03:42:40;;;;;;;81.97;51.60;;;;;;;;;;5130650;27;20099;-78
2023/05/15 03:45:07;;;;;;;83.68;49.83;;;;;;;;;;5133365;27;20042;-77
2023/05/15 03:47:33;;;;;;;84.32;49.83;;;;;;;;;;5132056;27;20073;-77
2023/05/15 03:49:59;;;;;;;91.82;49.38;;;;;;;;;;5129067;27;20102;-77
2023/05/15 03:52:25;;;;;;;81.72;47.97;;;;;;;;;;5132149;27;20043;-78
2023/05/15 03:54:51;;;;;;;73.65;48.85;;;;;;;;;;5128724;27;20046;-78
2023/05/15 03:57:17;;;;;;;115.93;47.80;;;;;;;;;;5126994;27;20043;-77
2023/05/15 03:59:43;;;;;;;146.23;48.55;;;;;;;;;;5117837;27;20036;-77
2023/05/15 04:02:09;;;;;;;109.40;49.15;;;;;;;;;;5124364;27;20035;-78
2023/05/15 04:04:36;;;;;;;89.65;49.58;;;;;;;;;;5132142;27;20125;-78
2023/05/15 04:07:02;;;;;;;72.00;48.45;;;;;;;;;;5103421;27;20552;-78
2023/05/15 04:09:28;;;;;;;79.78;48.65;;;;;;;;;;5136179;27;20085;-79
2023/05/15 04:11:54;;;;;;;91.90;48.95;;;;;;;;;;5122262;27;20349;-78
2023/05/15 04:14:20;;;;;;;79.50;48.97;;;;;;;;;;5126981;27;20525;-78
2023/05/15 04:16:47;;;;;;;73.85;49.58;;;;;;;;;;5130633;27;20130;-78
2023/05/15 04:19:13;;;;;;;87.88;50.38;;;;;;;;;;5125073;27;20043;-78
2023/05/15 04:21:39;;;;;;;82.57;46.22;;;;;;;;;;5135680;27;20039;-78
2023/05/15 04:24:07;;;;;;;97.88;49.20;;;;;;;;;;5116696;27;20050;-78
2023/05/15 04:26:33;;;;;;;76.93;48.90;;;;;;;;;;5112935;28;20426;-78
2023/05/15 04:28:59;;;;;;;85.05;51.42;;;;;;;;;;5132333;27;20461;-78
2023/05/15 04:31:26;;;;;;;82.20;51.63;;;;;;;;;;5115576;27;20051;-78
2023/05/15 04:33:52;;;;;;;80.43;51.50;;;;;;;;;;5116786;28;20112;-79
2023/05/15 04:36:18;;;;;;;87.50;53.50;;;;;;;;;;5131443;27;20397;-78
2023/05/15 04:38:45;;;;;;;78.65;50.53;;;;;;;;;;5135017;28;20054;-78
2023/05/15 04:41:11;;;;;;;77.95;51.20;;;;;;;;;;5120275;28;20085;-78
2023/05/15 04:43:37;;;;;;;93.13;51.40;;;;;;;;;;5126412;28;20039;-78
2023/05/15 04:46:03;;;;;;;83.30;53.00;;;;;;;;;;5128302;28;20050;-78
2023/05/15 04:48:29;;;;;;;73.88;49.92;;;;;;;;;;5135406;28;20055;-78
2023/05/15 04:50:55;;;;;;;69.13;48.45;;;;;;;;;;5133079;28;20503;-78
2023/05/15 04:53:21;;;;;;;68.72;48.83;;;;;;;;;;5122083;28;20502;-78
2023/05/15 04:55:50;;;;;;;72.38;46.47;;;;;;;;;;5100379;28;20079;-77
2023/05/15 04:58:16;;;;;;;64.88;45.25;;;;;;;;;;5129576;28;20535;-78
2023/05/15 05:00:42;;;;;;;74.40;43.67;;;;;;;;;;5134008;28;20039;-78
2023/05/15 05:03:08;;;;;;;81.25;45.72;;;;;;;;;;5134181;28;20039;-78
2023/05/15 05:05:34;;;;;;;68.10;44.70;;;;;;;;;;5133261;28;20074;-77
2023/05/15 05:08:00;;;;;;;59.90;42.75;;;;;;;;;;5122852;28;20130;-78
2023/05/15 05:10:26;;;;;;;68.75;44.15;;;;;;;;;;5142365;28;20050;-78
2023/05/15 05:12:52;;;;;;;57.10;42.75;;;;;;;;;;5128104;28;20496;-78
2023/05/15 05:15:19;;;;;;;92.28;43.97;;;;;;;;;;5126564;28;20044;-78
2023/05/15 05:17:45;;;;;;;70.55;43.92;;;;;;;;;;5125605;28;20401;-78
2023/05/15 05:20:12;;;;;;;61.90;43.00;;;;;;;;;;5129068;28;20047;-79
2023/05/15 05:22:39;;;;;;;58.67;42.05;;;;;;;;;;5122579;28;20045;-79
2023/05/15 05:25:05;;;;;;;56.58;40.78;;;;;;;;;;5125379;28;20115;-78
2023/05/15 05:27:31;;;;;;;63.05;42.50;;;;;;;;;;5120661;28;20035;-78
2023/05/15 05:29:57;;;;;;;79.32;44.33;;;;;;;;;;5114610;28;20051;-78
2023/05/15 05:32:23;;;;;;;65.53;43.63;;;;;;;;;;5123722;28;20035;-78
2023/05/15 05:34:49;;;;;;;60.42;41.58;;;;;;;;;;5123273;28;20043;-77
2023/05/15 05:37:15;;;;;;;59.78;43.05;;;;;;;;;;5109221;28;20055;-78
2023/05/15 05:39:41;;;;;;;64.55;43.30;;;;;;;;;;5124081;28;20048;-77
2023/05/15 05:42:08;;;;;;;57.72;40.50;;;;;;;;;;5103158;28;20050;-78
2023/05/15 05:44:34;;;;;;;59.60;42.17;;;;;;;;;;5125550;28;20048;-77
2023/05/15 05:47:00;;;;;;;59.55;42.28;;;;;;;;;;5133601;27;20055;-77
2023/05/15 05:49:26;;;;;;;59.20;42.17;;;;;;;;;;5135153;27;20043;-78
2023/05/15 05:51:52;;;;;;;59.88;41.75;;;;;;;;;;5137348;27;20487;-78
2023/05/15 05:54:18;;;;;;;61.92;42.17;;;;;;;;;;5134949;27;20039;-78
2023/05/15 05:56:45;;;;;;;58.53;40.10;;;;;;;;;;5138217;27;20510;-78
2023/05/15 05:59:11;;;;;;;58.55;40.15;;;;;;;;;;5137256;27;20091;-77
2023/05/15 06:01:37;;;;;;;55.47;38.55;;;;;;;;;;5137152;27;20054;-77
2023/05/15 06:04:03;;;;;;;58.88;40.70;;;;;;;;;;5135342;27;20777;-78
2023/05/15 06:06:29;;;;;;;57.22;39.13;;;;;;;;;;5127386;27;20103;-79
2023/05/15 06:08:55;;;;;;;50.17;36.80;;;;;;;;;;5134537;27;20039;-77
2023/05/15 06:11:22;;;;;;;50.92;36.55;;;;;;;;;;5134888;27;20054;-77
2023/05/15 06:13:48;;;;;;;47.97;34.40;;;;;;;;;;5134121;27;20446;-78
2023/05/15 06:16:14;;;;;;;42.70;32.58;;;;;;;;;;5134529;27;20035;-78
2023/05/15 06:18:40;;;;;;;44.38;32.90;;;;;;;;;;5131703;27;20043;-78
2023/05/15 06:21:06;;;;;;;43.50;32.60;;;;;;;;;;5127383;27;20044;-78
2023/05/15 06:23:32;;;;;;;40.33;31.02;;;;;;;;;;5120683;27;20039;-78
2023/05/15 06:25:58;;;;;;;41.13;31.25;;;;;;;;;;5135658;27;20380;-78
2023/05/15 06:28:24;;;;;;;43.50;32.75;;;;;;;;;;5127478;27;20036;-77
2023/05/15 06:30:50;;;;;;;39.78;31.08;;;;;;;;;;5130492;27;20123;-78
2023/05/15 06:33:17;;;;;;;40.17;31.48;;;;;;;;;;5117299;27;20073;-77
2023/05/15 06:35:43;;;;;;;39.80;31.50;;;;;;;;;;5137093;27;20074;-78
2023/05/15 06:38:09;;;;;;;39.80;31.27;;;;;;;;;;5131035;27;20044;-77
2023/05/15 06:40:35;;;;;;;40.75;30.58;;;;;;;;;;5135060;27;20054;-77
2023/05/15 06:43:01;;;;;;;38.08;30.88;;;;;;;;;;5137086;27;20515;-77
2023/05/15 06:45:27;;;;;;;38.78;30.73;;;;;;;;;;5136607;27;20118;-78
2023/05/15 06:47:53;;;;;;;39.95;32.75;;;;;;;;;;5142864;27;20043;-78
2023/05/15 06:50:19;;;;;;;39.33;31.90;;;;;;;;;;5136742;27;20039;-78
2023/05/15 06:52:45;;;;;;;38.17;32.90;;;;;;;;;;5109349;28;20070;-77
2023/05/15 06:55:11;;;;;;;39.83;32.35;;;;;;;;;;5128320;27;20058;-78
2023/05/15 06:57:37;;;;;;;42.75;32.83;;;;;;;;;;5140583;27;20103;-78
2023/05/15 07:00:04;;;;;;;38.15;32.65;;;;;;;;;;5134397;27;20057;-78
2023/05/15 07:02:30;;;;;;;39.70;33.60;;;;;;;;;;5117044;27;20381;-78
2023/05/15 07:04:56;;;;;;;37.80;32.42;;;;;;;;;;5131322;27;20413;-75
2023/05/15 07:07:22;;;;;;;35.70;30.35;;;;;;;;;;5131852;27;20058;-75
2023/05/15 07:09:49;;;;;;;38.63;32.40;;;;;;;;;;5121121;27;20043;-75
2023/05/15 07:12:15;;;;;;;36.20;30.70;;;;;;;;;;5126205;27;20140;-76
2023/05/15 07:14:41;;;;;;;33.20;29.63;;;;;;;;;;5130639;27;20055;-77
2023/05/15 07:17:07;;;;;;;31.50;28.05;;;;;;;;;;5136028;27;21834;-79
2023/05/15 07:19:33;;;;;;;33.05;29.55;;;;;;;;;;5116702;27;20047;-76
2023/05/15 07:21:59;;;;;;;29.75;26.60;;;;;;;;;;5133713;27;20404;-76
2023/05/15 07:24:25;;;;;;;29.08;26.08;;;;;;;;;;5129337;27;20079;-77
2023/05/15 07:26:51;;;;;;;29.15;26.15;;;;;;;;;;5131350;27;20091;-76
2023/05/15 07:29:17;;;;;;;27.85;25.15;;;;;;;;;;5126412;27;20043;-76
2023/05/15 07:31:43;;;;;;;26.23;23.63;;;;;;;;;;5126958;27;20046;-76
2023/05/15 07:34:10;;;;;;;25.40;23.00;;;;;;;;;;5133380;27;20042;-76
2023/05/15 07:36:36;;;;;;;25.85;23.27;;;;;;;;;;5134031;27;20126;-75
2023/05/15 07:39:02;;;;;;;23.73;21.33;;;;;;;;;;5133902;27;20035;-76
2023/05/15 07:41:31;;;;;;;23.27;21.10;;;;;;;;;;5133746;27;20082;-77
2023/05/15 07:43:57;;;;;;;21.42;19.42;;;;;;;;;;5132417;27;20114;-75
2023/05/15 07:46:23;;;;;;;21.23;19.10;;;;;;;;;;5121764;27;20047;-76
2023/05/15 07:48:49;;;;;;;21.33;19.27;;;;;;;;;;5133546;27;20511;-76
2023/05/15 07:51:15;;;;;;;21.02;18.83;;;;;;;;;;5132616;27;20126;-76
2023/05/15 07:53:41;;;;;;;20.08;18.05;;;;;;;;;;5123767;27;20452;-76
2023/05/15 07:56:07;;;;;;;17.48;15.52;;;;;;;;;;5115299;27;20442;-76
2023/05/15 07:58:35;;;;;;;16.08;14.48;;;;;;;;;;5133055;27;20050;-76
2023/05/15 08:01:01;;;;;;;17.63;15.50;;;;;;;;;;5132252;27;20366;-76
2023/05/15 08:03:28;;;;;;;15.63;13.95;;;;;;;;;;5131281;27;20043;-75
2023/05/15 08:05:54;;;;;;;18.70;15.65;;;;;;;;;;5132425;27;20043;-76
2023/05/15 08:08:20;;;;;;;16.10;14.52;;;;;;;;;;5132739;27;20051;-76
2023/05/15 08:10:46;;;;;;;17.08;14.70;;;;;;;;;;5112892;27;20039;-76
2023/05/15 08:13:12;;;;;;;16.85;15.05;;;;;;;;;;5094730;28;20413;-76
2023/05/15 08:15:38;;;;;;;17.15;14.77;;;;;;;;;;5113331;28;20051;-76
2023/05/15 08:18:08;;;;;;;18.48;15.27;;;;;;;;;;5125475;27;20407;-76
2023/05/15 08:20:34;;;;;;;16.30;14.27;;;;;;;;;;5123829;27;20050;-75
2023/05/15 08:23:00;;;;;;;16.98;15.07;;;;;;;;;;5131699;27;20047;-75
2023/05/15 08:25:26;;;;;;;17.85;15.38;;;;;;;;;;5133298;27;20043;-75
2023/05/15 08:27:52;;;;;;;18.25;16.33;;;;;;;;;;5131905;27;20463;-75
2023/05/15 08:30:18;;;;;;;18.45;15.10;;;;;;;;;;5133092;27;20039;-75
2023/05/15 08:32:45;;;;;;;17.00;15.20;;;;;;;;;;5132724;27;20046;-76
2023/05/15 08:35:11;;;;;;;17.90;16.10;;;;;;;;;;5114070;27;20412;-77
2023/05/15 08:37:37;;;;;;;18.52;15.65;;;;;;;;;;5129167;27;20047;-77
2023/05/15 08:40:09;;;;;;;15.93;14.30;;;;;;;;;;5133897;28;20043;-77
2023/05/15 08:42:43;;;;;;;16.98;14.55;;;;;;;;;;5131071;28;20047;-77
2023/05/15 08:45:09;;;;;;;14.25;12.75;;;;;;;;;;5133454;28;20443;-76
2023/05/15 08:47:38;;;;;;;16.75;15.05;;;;;;;;;;5134300;28;20047;-76
2023/05/15 08:50:04;;;;;;;18.60;15.70;;;;;;;;;;5133518;28;20054;-76
2023/05/15 08:52:31;;;;;;;17.13;15.32;;;;;;;;;;5121127;28;20044;-77
2023/05/15 08:54:58;;;;;;;14.40;12.90;;;;;;;;;;5132035;28;20386;-76
2023/05/15 08:57:25;;;;;;;15.55;13.02;;;;;;;;;;5133238;28;20036;-76
2023/05/15 08:59:52;;;;;;;18.10;13.63;;;;;;;;;;5119779;28;20039;-75
2023/05/15 09:02:19;;;;;;;14.02;12.23;;;;;;;;;;5136519;28;20480;-79
2023/05/15 09:04:45;;;;;;;16.23;12.68;;;;;;;;;;5112151;28;20043;-75
2023/05/15 09:07:11;;;;;;;15.57;12.40;;;;;;;;;;5125933;28;20505;-75
2023/05/15 09:09:38;;;;;;;17.05;13.70;;;;;;;;;;5125554;28;20084;-74
2023/05/15 09:12:06;;;;;;;14.98;12.73;;;;;;;;;;5130251;28;20051;-74
2023/05/15 09:14:32;;;;;;;15.48;12.93;;;;;;;;;;5131537;28;20046;-76
2023/05/15 09:16:58;;;;;;;16.58;13.02;;;;;;;;;;5127834;28;20031;-74
2023/05/15 09:19:24;;;;;;;15.85;13.00;;;;;;;;;;5126622;28;20035;-74
2023/05/15 09:21:50;;;;;;;15.32;12.25;;;;;;;;;;5124673;27;20043;-73
2023/05/15 09:24:17;;;;;;;13.88;11.77;;;;;;;;;;5130786;27;20043;-73
2023/05/15 09:26:47;;;;;;;12.45;11.10;;;;;;;;;;5128807;27;20039;-73
2023/05/15 09:29:16;;;;;;;14.27;11.88;;;;;;;;;;5133089;27;20031;-73
2023/05/15 09:31:43;;;;;;;13.70;10.93;;;;;;;;;;5129451;27;20035;-72
2023/05/15 09:34:09;;;;;;;14.75;12.00;;;;;;;;;;5129004;27;20035;-74
2023/05/15 09:36:35;;;;;;;13.23;11.32;;;;;;;;;;5133604;27;20126;-73
2023/05/15 09:39:02;;;;;;;14.15;10.95;;;;;;;;;;5130897;27;20035;-73
2023/05/15 09:41:28;;;;;;;12.02;8.98;;;;;;;;;;5134210;27;20440;-73
2023/05/15 09:43:55;;;;;;;13.68;8.52;;;;;;;;;;5136521;27;20043;-74
2023/05/15 09:46:24;;;;;;;13.23;10.02;;;;;;;;;;5135363;27;20051;-75
2023/05/15 09:48:54;;;;;;;12.32;9.00;;;;;;;;;;5136362;27;20099;-72
2023/05/15 09:51:21;;;;;;;10.65;9.20;;;;;;;;;;5136164;27;20515;-74
2023/05/15 09:53:48;;;;;;;11.38;7.88;;;;;;;;;;5136096;27;20519;-75
2023/05/15 09:56:14;;;;;;;15.73;10.30;;;;;;;;;;5136182;27;20054;-74
2023/05/15 09:58:52;;;;;;;12.77;9.48;;;;;;;;;;5134778;27;20092;-66
2023/05/15 10:01:20;;;;;;;14.77;9.50;;;;;;;;;;5135257;27;20049;-74
2023/05/15 10:03:56;;;;;;;11.13;7.78;;;;;;;;;;5135543;27;20046;-75
2023/05/15 10:06:22;;;;;;;11.90;8.85;;;;;;;;;;5132138;27;20099;-75
2023/05/15 10:08:53;;;;;;;12.77;8.85;;;;;;;;;;5136040;27;20039;-74
2023/05/15 10:11:20;;;;;;;10.65;7.53;;;;;;;;;;5127185;27;20054;-74
2023/05/15 10:13:46;;;;;;;12.88;8.43;;;;;;;;;;5120849;27;20040;-74
2023/05/15 10:16:13;;;;;;;10.05;7.63;;;;;;;;;;5134997;27;20039;-74
2023/05/15 10:18:40;;;;;;;12.50;10.10;;;;;;;;;;5129956;27;20507;-74
2023/05/15 10:21:07;;;;;;;13.05;9.13;;;;;;;;;;5136284;27;20047;-74
2023/05/15 10:23:35;;;;;;;13.18;8.88;;;;;;;;;;5135894;27;20474;-74
2023/05/15 10:26:08;;;;;;;11.48;8.13;;;;;;;;;;5134521;27;20060;-74
2023/05/15 10:28:35;;;;;;;13.45;9.73;;;;;;;;;;5115657;28;20046;-74
2023/05/15 10:31:01;;;;;;;13.85;9.18;;;;;;;;;;5115433;28;20040;-74
2023/05/15 10:33:28;;;;;;;12.02;9.98;;;;;;;;;;5118614;27;20092;-73
2023/05/15 10:35:54;;;;;;;11.95;10.45;;;;;;;;;;5130144;27;20043;-75
2023/05/15 10:38:21;;;;;;;13.63;9.77;;;;;;;;;;5128429;27;20506;-75
2023/05/15 10:40:47;;;;;;;13.93;10.13;;;;;;;;;;5127931;27;20039;-75
2023/05/15 10:43:13;;;;;;;10.40;9.27;;;;;;;;;;5127643;27;20046;-74
2023/05/15 10:45:40;;;;;;;14.35;10.07;;;;;;;;;;5129658;27;20438;-74
2023/05/15 10:48:06;;;;;;;12.07;9.65;;;;;;;;;;5127728;27;20087;-77
2023/05/15 10:50:32;;;;;;;12.15;9.05;;;;;;;;;;5129110;27;20496;-74
2023/05/15 10:52:59;;;;;;;13.68;10.00;;;;;;;;;;5131967;27;20042;-75
2023/05/15 10:55:25;;;;;;;11.73;9.75;;;;;;;;;;5130275;27;20114;-75
2023/05/15 10:57:52;;;;;;;12.88;10.13;;;;;;;;;;5130728;27;20035;-74
2023/05/15 11:00:21;;;;;;;13.35;10.30;;;;;;;;;;5112452;27;20382;-73
2023/05/15 11:02:48;;;;;;;16.92;10.30;;;;;;;;;;5133209;27;20133;-73
2023/05/15 11:05:14;;;;;;;13.75;8.70;;;;;;;;;;5126434;27;20420;-73
2023/05/15 11:07:40;;;;;;;11.90;9.70;;;;;;;;;;5130056;27;20054;-74
2023/05/15 11:10:32;;;;;;;13.35;9.57;;;;;;;;;;5131010;27;20616;-72
2023/05/15 11:12:59;;;;;;;10.48;5.78;;;;;;;;;;5133813;27;20055;-73
2023/05/15 11:15:25;;;;;;;8.15;6.40;;;;;;;;;;5125283;27;20047;-73
2023/05/15 11:18:04;;;;;;;8.55;5.97;;;;;;;;;;5131162;27;20055;-73
2023/05/15 11:20:40;;;;;;;12.45;7.57;;;;;;;;;;5121931;27;20066;-73
2023/05/15 11:23:06;;;;;;;11.30;6.50;;;;;;;;;;5131482;27;20515;-74
2023/05/15 11:25:36;;;;;;;9.25;5.18;;;;;;;;;;5132500;27;20126;-72
2023/05/15 11:28:03;;;;;;;7.65;4.60;;;;;;;;;;5133879;27;20039;-73
2023/05/15 11:30:39;;;;;;;7.55;4.55;;;;;;;;;;5131802;27;20065;-74
2023/05/15 11:33:10;;;;;;;10.35;5.88;;;;;;;;;;5121969;27;20051;-74
2023/05/15 11:35:38;;;;;;;8.63;6.30;;;;;;;;;;5134492;27;20054;-74
2023/05/15 11:38:10;;;;;;;8.63;5.78;;;;;;;;;;5133216;27;20122;-73
2023/05/15 11:40:48;;;;;;;10.00;6.07;;;;;;;;;;5127838;27;20043;-74
2023/05/15 11:43:17;;;;;;;9.40;6.25;;;;;;;;;;5133837;27;20123;-75
2023/05/15 11:45:45;;;;;;;11.18;7.43;;;;;;;;;;5133010;27;20408;-74
2023/05/15 11:48:15;;;;;;;10.00;6.38;;;;;;;;;;5130850;27;20062;-74
2023/05/15 11:50:41;;;;;;;9.60;5.95;;;;;;;;;;5133282;27;20416;-74
2023/05/15 11:53:08;;;;;;;8.02;5.63;;;;;;;;;;5128241;27;20032;-74
2023/05/15 11:55:36;;;;;;;12.55;5.80;;;;;;;;;;5132597;27;20051;-73
2023/05/15 11:58:03;;;;;;;9.38;5.70;;;;;;;;;;5126706;27;20126;-73
2023/05/15 12:00:29;;;;;;;9.00;5.93;;;;;;;;;;5125071;27;20127;-74
2023/05/15 12:02:55;;;;;;;9.65;6.43;;;;;;;;;;5130486;27;20110;-74
2023/05/15 12:05:22;;;;;;;8.35;6.70;;;;;;;;;;5109698;27;20039;-74
2023/05/15 12:07:48;;;;;;;10.63;6.50;;;;;;;;;;5127795;27;20039;-74
2023/05/15 12:10:14;;;;;;;11.27;7.30;;;;;;;;;;5110475;27;20373;-74
2023/05/15 12:12:42;;;;;;;11.63;7.28;;;;;;;;;;5127429;27;20051;-74
2023/05/15 12:15:09;;;;;;;10.93;7.40;;;;;;;;;;5132377;27;20377;-74
2023/05/15 12:17:37;;;;;;;12.77;8.07;;;;;;;;;;5132992;27;20063;-74
2023/05/15 12:20:04;;;;;;;11.48;7.50;;;;;;;;;;5131598;27;20465;-74
2023/05/15 12:22:35;;;;;;;9.70;7.55;;;;;;;;;;5108811;27;20039;-74
2023/05/15 12:25:01;;;;;;;11.32;7.78;;;;;;;;;;5114151;28;20043;-75
2023/05/15 12:27:27;;;;;;;11.68;7.68;;;;;;;;;;5124447;27;20087;-74
2023/05/15 12:29:54;;;;;;;15.55;8.15;;;;;;;;;;5133246;27;20058;-74
2023/05/15 12:32:20;;;;;;;12.10;8.40;;;;;;;;;;5131869;27;20035;-74
2023/05/15 12:34:47;;;;;;;8.98;7.00;;;;;;;;;;5132575;27;20031;-74
2023/05/15 12:37:13;;;;;;;11.85;7.78;;;;;;;;;;5109855;28;20050;-74
2023/05/15 12:39:56;;;;;;;12.40;7.55;;;;;;;;;;5109113;28;20071;-74
2023/05/15 12:42:22;;;;;;;11.50;8.27;;;;;;;;;;5130809;28;20044;-74
2023/05/15 12:44:52;;;;;;;11.55;7.68;;;;;;;;;;5131449;28;20039;-73
2023/05/15 12:47:21;;;;;;;11.50;7.53;;;;;;;;;;5133605;27;20043;-73
2023/05/15 12:49:47;;;;;;;11.48;8.07;;;;;;;;;;5133302;28;20054;-73
2023/05/15 12:52:15;;;;;;;10.20;7.32;;;;;;;;;;5133239;28;20056;-75
2023/05/15 12:54:41;;;;;;;9.13;7.15;;;;;;;;;;5132790;27;20042;-74
2023/05/15 12:57:11;;;;;;;10.70;7.22;;;;;;;;;;5133455;27;20449;-75
2023/05/15 12:59:38;;;;;;;9.40;7.10;;;;;;;;;;5135460;27;20450;-73
2023/05/15 13:02:05;;;;;;;11.13;7.70;;;;;;;;;;5129778;27;20512;-74
2023/05/15 13:04:34;;;;;;;9.77;7.45;;;;;;;;;;5117654;28;20039;-74
2023/05/15 13:07:00;;;;;;;10.65;7.50;;;;;;;;;;5117700;28;20107;-74
2023/05/15 13:09:26;;;;;;;10.32;7.88;;;;;;;;;;5117227;28;20505;-74
2023/05/15 13:11:56;;;;;;;11.73;7.63;;;;;;;;;;5108848;28;20048;-74
2023/05/15 13:14:25;;;;;;;11.52;7.97;;;;;;;;;;5136333;27;20050;-74
2023/05/15 13:16:52;;;;;;;8.63;7.25;;;;;;;;;;5137117;27;20043;-74
2023/05/15 13:19:18;;;;;;;12.00;7.30;;;;;;;;;;5126400;27;20053;-74
2023/05/15 13:21:44;;;;;;;13.48;7.07;;;;;;;;;;5128294;27;20035;-75
2023/05/15 13:24:11;;;;;;;10.63;7.78;;;;;;;;;;5136785;27;20039;-74
2023/05/15 13:26:37;;;;;;;11.82;7.40;;;;;;;;;;5135415;27;21135;-74
2023/05/15 13:29:03;;;;;;;12.15;7.13;;;;;;;;;;5134973;27;20070;-75
2023/05/15 13:31:29;;;;;;;11.50;7.15;;;;;;;;;;5133425;27;20049;-75
2023/05/15 13:33:55;;;;;;;11.93;7.22;;;;;;;;;;5117355;27;20043;-75
2023/05/15 13:36:21;;;;;;;11.73;7.43;;;;;;;;;;5136539;27;20345;-75
2023/05/15 13:38:47;;;;;;;15.35;7.95;;;;;;;;;;5136930;27;20039;-74
2023/05/15 13:41:14;;;;;;;10.85;7.78;;;;;;;;;;5129079;27;20073;-74
2023/05/15 13:43:40;;;;;;;12.25;8.88;;;;;;;;;;5121149;27;20047;-81
2023/05/15 13:46:06;;;;;;;12.43;8.57;;;;;;;;;;5109168;27;20683;-76
2023/05/15 13:48:32;;;;;;;11.68;9.55;;;;;;;;;;5139012;27;20107;-75
2023/05/15 13:50:58;;;;;;;12.63;9.10;;;;;;;;;;5135948;27;20027;-75
2023/05/15 13:53:24;;;;;;;10.68;9.30;;;;;;;;;;5109866;27;20043;-75
2023/05/15 13:55:50;;;;;;;12.02;9.40;;;;;;;;;;5123621;27;20121;-75
2023/05/15 13:58:16;;;;;;;11.43;9.40;;;;;;;;;;5135347;27;20031;-75
2023/05/15 14:00:43;;;;;;;11.68;8.25;;;;;;;;;;5132412;27;20074;-74
2023/05/15 14:03:09;;;;;;;11.88;9.02;;;;;;;;;;5133482;27;20148;-75
2023/05/15 14:05:35;;;;;;;9.85;7.68;;;;;;;;;;5133922;27;20118;-74
2023/05/15 14:08:02;;;;;;;11.60;8.10;;;;;;;;;;5136267;27;20122;-73
2023/05/15 14:10:28;;;;;;;8.93;6.93;;;;;;;;;;5133918;27;20046;-75
2023/05/15 14:12:54;;;;;;;12.25;6.40;;;;;;;;;;5136590;27;20552;-74
2023/05/15 14:15:21;;;;;;;7.80;5.78;;;;;;;;;;5134606;27;20075;-74
2023/05/15 14:17:48;;;;;;;10.60;5.28;;;;;;;;;;5135804;27;20043;-75
2023/05/15 14:20:14;;;;;;;8.05;5.60;;;;;;;;;;5135787;27;20507;-74